PWSweather.com
Personal Weather Stations
Station Observations
31648434
Capital (cazadores De Tormentas), San Fernando Del Valle De CatamarcaAR 4700

Capital (cazadores De Tormentas)San Fernando Del Valle De CatamarcaAR 4700

Lat: -28.467778, Lon: -65.795278

Elevation: 1896.33

Station Type: Fine Offset WH1081

http://www.cazatormentasdecatamarca.com/2011/10/datos-del-tiempo-actuales.html

Latest ConditionsUpdated 4:42:48 AM GMT-03:57 Monday, Dec 10, 2018
Currently Today's Max Today's Min Today's Average
Temperature 78.1°F25.6°C 81.7°F27.6°C 78.1°F25.6°C 79.9°F26.6°C
Dew Point 65.3°F18.5°C 67.8°F19.9°C 64.0°F17.8°C 65.5°F18.6°C
Winds 0.7 mph NE1.1 kmh NE 4.5 mph -7.2 kmh - - 2.3 mph 3.7 kmh
Wind Gusts 2.2 mph3.5 kmh 11.4 mph18.3 kmh - -
Humidity 65% 65% 58% 62%
Pressure 29.75 in1007.5 mb 29.80 in1009.1 mb 29.75 in1007.5 mb -
Hour Temp Dew Point Humidity Winds Wind Gusts Pressure Precip Precip Rate Daily Precip Total
04:42 AM 78.1°F25.6°C 65.3°F18.5°C 65% 0.7 mph NE1.1 kmh NE 2.2 mph3.5 kmh 29.75 in1007.5 mb 0.00 in0.0 mm 0.00 in0.0 mm 0.00 in0.0 mm
04:41 AM 78.1°F25.6°C 65.3°F18.5°C 65% 0.7 mph 1.1 kmh 2.2 mph3.5 kmh 29.75 in1007.5 mb 0.00 in0.0 mm 0.00 in0.0 mm 0.00 in0.0 mm
04:40 AM 78.1°F25.6°C 65.3°F18.5°C 65% Calm Calm 1.6 mph2.6 kmh 29.75 in1007.5 mb 0.00 in0.0 mm 0.00 in0.0 mm 0.00 in0.0 mm
04:39 AM 78.1°F25.6°C 65.3°F18.5°C 65% Calm Calm 2.2 mph3.5 kmh 29.75 in1007.5 mb 0.00 in0.0 mm 0.00 in0.0 mm 0.00 in0.0 mm
04:38 AM 78.1°F25.6°C 65.3°F18.5°C 65% 0.7 mph NE1.1 kmh NE 3.1 mph5.0 kmh 29.75 in1007.5 mb 0.00 in0.0 mm 0.00 in0.0 mm 0.00 in0.0 mm
04:36 AM 78.1°F25.6°C 64.9°F18.3°C 64% 1.6 mph E2.6 kmh E 3.8 mph6.1 kmh 29.75 in1007.5 mb 0.00 in0.0 mm 0.00 in0.0 mm 0.00 in0.0 mm
04:35 AM 78.1°F25.6°C 64.9°F18.3°C 64% 2.2 mph E3.5 kmh E 5.4 mph8.7 kmh 29.75 in1007.5 mb 0.00 in0.0 mm 0.00 in0.0 mm 0.00 in0.0 mm
04:34 AM 78.1°F25.6°C 64.9°F18.3°C 64% 1.6 mph E2.6 kmh E 4.5 mph7.2 kmh 29.75 in1007.5 mb 0.00 in0.0 mm 0.00 in0.0 mm 0.00 in0.0 mm
04:33 AM 78.1°F25.6°C 64.9°F18.3°C 64% 0.7 mph SE1.1 kmh SE 3.1 mph5.0 kmh 29.75 in1007.5 mb 0.00 in0.0 mm 0.00 in0.0 mm 0.00 in0.0 mm
04:32 AM 78.3°F25.7°C 65.1°F18.4°C 64% 1.6 mph NE2.6 kmh NE 4.5 mph7.2 kmh 29.75 in1007.5 mb 0.00 in0.0 mm 0.00 in0.0 mm 0.00 in0.0 mm
04:31 AM 78.1°F25.6°C 64.9°F18.3°C 64% 1.6 mph SE2.6 kmh SE 4.5 mph7.2 kmh 29.75 in1007.5 mb 0.00 in0.0 mm 0.00 in0.0 mm 0.00 in0.0 mm
04:29 AM 78.3°F25.7°C 65.1°F18.4°C 64% 2.2 mph NE3.5 kmh NE 5.4 mph8.7 kmh 29.75 in1007.5 mb 0.00 in0.0 mm 0.00 in0.0 mm 0.00 in0.0 mm
04:28 AM 78.3°F25.7°C 65.1°F18.4°C 64% 0.7 mph E1.1 kmh E 2.2 mph3.5 kmh 29.75 in1007.5 mb 0.00 in0.0 mm 0.00 in0.0 mm 0.00 in0.0 mm
04:27 AM 78.3°F25.7°C 65.1°F18.4°C 64% 0.7 mph E1.1 kmh E 2.2 mph3.5 kmh 29.75 in1007.5 mb 0.00 in0.0 mm 0.00 in0.0 mm 0.00 in0.0 mm
04:26 AM 78.3°F25.7°C 65.1°F18.4°C 64% 0.7 mph E1.1 kmh E 3.8 mph6.1 kmh 29.75 in1007.5 mb 0.00 in0.0 mm 0.00 in0.0 mm 0.00 in0.0 mm
04:25 AM 78.3°F25.7°C 65.1°F18.4°C 64% 1.6 mph NE2.6 kmh NE 3.8 mph6.1 kmh 29.75 in1007.5 mb 0.00 in0.0 mm 0.00 in0.0 mm 0.00 in0.0 mm
04:24 AM 78.3°F25.7°C 65.1°F18.4°C 64% 0.7 mph E1.1 kmh E 4.5 mph7.2 kmh 29.75 in1007.5 mb 0.00 in0.0 mm 0.00 in0.0 mm 0.00 in0.0 mm
04:22 AM 78.3°F25.7°C 65.1°F18.4°C 64% 3.1 mph E5.0 kmh E 4.5 mph7.2 kmh 29.75 in1007.5 mb 0.00 in0.0 mm 0.00 in0.0 mm 0.00 in0.0 mm
04:21 AM 78.3°F25.7°C 65.1°F18.4°C 64% 2.2 mph E3.5 kmh E 3.8 mph6.1 kmh 29.75 in1007.5 mb 0.00 in0.0 mm 0.00 in0.0 mm 0.00 in0.0 mm
04:20 AM 78.3°F25.7°C 65.1°F18.4°C 64% 0.7 mph E1.1 kmh E 5.4 mph8.7 kmh 29.75 in1007.5 mb 0.00 in0.0 mm 0.00 in0.0 mm 0.00 in0.0 mm
04:19 AM 78.3°F25.7°C 65.1°F18.4°C 64% 0.7 mph NE1.1 kmh NE 3.8 mph6.1 kmh 29.75 in1007.5 mb 0.00 in0.0 mm 0.00 in0.0 mm 0.00 in0.0 mm
04:18 AM 78.3°F25.7°C 65.1°F18.4°C 64% 2.2 mph NW3.5 kmh NW 4.5 mph7.2 kmh 29.75 in1007.5 mb 0.00 in0.0 mm 0.00 in0.0 mm 0.00 in0.0 mm
04:16 AM 78.3°F25.7°C 65.1°F18.4°C 64% 3.1 mph NE5.0 kmh NE 4.5 mph7.2 kmh 29.75 in1007.5 mb 0.00 in0.0 mm 0.00 in0.0 mm 0.00 in0.0 mm
04:15 AM 78.3°F25.7°C 65.1°F18.4°C 64% 1.6 mph 2.6 kmh 3.8 mph6.1 kmh 29.75 in1007.5 mb 0.00 in0.0 mm 0.00 in0.0 mm 0.00 in0.0 mm
04:14 AM 78.3°F25.7°C 65.1°F18.4°C 64% 2.2 mph SE3.5 kmh SE 4.5 mph7.2 kmh 29.75 in1007.5 mb 0.00 in0.0 mm 0.00 in0.0 mm 0.00 in0.0 mm
04:13 AM 78.3°F25.7°C 65.1°F18.4°C 64% 3.1 mph NE5.0 kmh NE 4.5 mph7.2 kmh 29.75 in1007.5 mb 0.00 in0.0 mm 0.00 in0.0 mm 0.00 in0.0 mm
04:12 AM 78.3°F25.7°C 65.1°F18.4°C 64% 0.7 mph NE1.1 kmh NE 4.5 mph7.2 kmh 29.75 in1007.5 mb 0.00 in0.0 mm 0.00 in0.0 mm 0.00 in0.0 mm
04:11 AM 78.3°F25.7°C 65.1°F18.4°C 64% 3.1 mph NE5.0 kmh NE 4.5 mph7.2 kmh 29.75 in1007.5 mb 0.00 in0.0 mm 0.00 in0.0 mm 0.00 in0.0 mm
04:09 AM 78.3°F25.7°C 65.1°F18.4°C 64% 2.2 mph E3.5 kmh E 5.4 mph8.7 kmh 29.75 in1007.5 mb 0.00 in0.0 mm 0.00 in0.0 mm 0.00 in0.0 mm
04:08 AM 78.4°F25.8°C 65.3°F18.5°C 64% 2.2 mph NE3.5 kmh NE 3.8 mph6.1 kmh 29.75 in1007.5 mb 0.00 in0.0 mm 0.00 in0.0 mm 0.00 in0.0 mm
04:07 AM 78.3°F25.7°C 65.1°F18.4°C 64% 1.6 mph ESE2.6 kmh ESE 3.8 mph6.1 kmh 29.75 in1007.5 mb 0.00 in0.0 mm 0.00 in0.0 mm 0.00 in0.0 mm
04:06 AM 78.4°F25.8°C 65.3°F18.5°C 64% 1.6 mph 2.6 kmh 3.8 mph6.1 kmh 29.75 in1007.5 mb 0.00 in0.0 mm 0.00 in0.0 mm 0.00 in0.0 mm
04:05 AM 78.4°F25.8°C 65.3°F18.5°C 64% 2.2 mph 3.5 kmh 3.8 mph6.1 kmh 29.75 in1007.5 mb 0.00 in0.0 mm 0.00 in0.0 mm 0.00 in0.0 mm
04:04 AM 78.4°F25.8°C 65.3°F18.5°C 64% 1.6 mph NE2.6 kmh NE 4.5 mph7.2 kmh 29.75 in1007.5 mb 0.00 in0.0 mm 0.00 in0.0 mm 0.00 in0.0 mm
04:02 AM 78.4°F25.8°C 65.3°F18.5°C 64% 0.7 mph NE1.1 kmh NE 4.5 mph7.2 kmh 29.75 in1007.5 mb 0.00 in0.0 mm 0.00 in0.0 mm 0.00 in0.0 mm
04:01 AM 78.4°F25.8°C 65.3°F18.5°C 64% 1.6 mph NE2.6 kmh NE 3.8 mph6.1 kmh 29.75 in1007.5 mb 0.00 in0.0 mm 0.00 in0.0 mm 0.00 in0.0 mm
04:00 AM 78.4°F25.8°C 65.3°F18.5°C 64% 0.7 mph NE1.1 kmh NE 4.5 mph7.2 kmh 29.75 in1007.5 mb 0.00 in0.0 mm 0.00 in0.0 mm 0.00 in0.0 mm
03:59 AM 78.4°F25.8°C 65.3°F18.5°C 64% 0.7 mph NE1.1 kmh NE 3.8 mph6.1 kmh 29.75 in1007.5 mb 0.00 in0.0 mm 0.00 in0.0 mm 0.00 in0.0 mm
03:58 AM 78.6°F25.9°C 64.9°F18.3°C 63% 2.2 mph NE3.5 kmh NE 6.0 mph9.7 kmh 29.75 in1007.5 mb 0.00 in0.0 mm 0.00 in0.0 mm 0.00 in0.0 mm
03:56 AM 78.6°F25.9°C 65.5°F18.6°C 64% 2.2 mph E3.5 kmh E 5.4 mph8.7 kmh 29.75 in1007.5 mb 0.00 in0.0 mm 0.00 in0.0 mm 0.00 in0.0 mm
03:55 AM 78.6°F25.9°C 65.5°F18.6°C 64% 2.2 mph NE3.5 kmh NE 4.5 mph7.2 kmh 29.75 in1007.5 mb 0.00 in0.0 mm 0.00 in0.0 mm 0.00 in0.0 mm
03:54 AM 78.6°F25.9°C 65.5°F18.6°C 64% 0.7 mph 1.1 kmh 3.8 mph6.1 kmh 29.75 in1007.5 mb 0.00 in0.0 mm 0.00 in0.0 mm 0.00 in0.0 mm
03:53 AM 78.6°F25.9°C 65.5°F18.6°C 64% 2.2 mph 3.5 kmh 4.5 mph7.2 kmh 29.75 in1007.5 mb 0.00 in0.0 mm 0.00 in0.0 mm 0.00 in0.0 mm
03:52 AM 78.6°F25.9°C 65.5°F18.6°C 64% 0.7 mph E1.1 kmh E 3.1 mph5.0 kmh 29.75 in1007.5 mb 0.00 in0.0 mm 0.00 in0.0 mm 0.00 in0.0 mm
03:51 AM 78.8°F26.0°C 65.7°F18.7°C 64% 1.6 mph 2.6 kmh 4.5 mph7.2 kmh 29.75 in1007.5 mb 0.00 in0.0 mm 0.00 in0.0 mm 0.00 in0.0 mm
03:49 AM 78.8°F26.0°C 65.7°F18.7°C 64% 1.6 mph NNW2.6 kmh NNW 4.5 mph7.2 kmh 29.75 in1007.5 mb 0.00 in0.0 mm 0.00 in0.0 mm 0.00 in0.0 mm
03:48 AM 78.8°F26.0°C 65.7°F18.7°C 64% 0.7 mph SE1.1 kmh SE 3.1 mph5.0 kmh 29.75 in1007.5 mb 0.00 in0.0 mm 0.00 in0.0 mm 0.00 in0.0 mm
03:47 AM 78.8°F26.0°C 65.7°F18.7°C 64% 0.7 mph NE1.1 kmh NE 2.2 mph3.5 kmh 29.75 in1007.5 mb 0.00 in0.0 mm 0.00 in0.0 mm 0.00 in0.0 mm
03:46 AM 79.0°F26.1°C 65.8°F18.8°C 64% 1.6 mph E2.6 kmh E 3.8 mph6.1 kmh 29.75 in1007.5 mb 0.00 in0.0 mm 0.00 in0.0 mm 0.00 in0.0 mm
03:45 AM 79.0°F26.1°C 65.8°F18.8°C 64% 1.6 mph NE2.6 kmh NE 3.8 mph6.1 kmh 29.75 in1007.5 mb 0.00 in0.0 mm 0.00 in0.0 mm 0.00 in0.0 mm
03:44 AM 79.0°F26.1°C 65.8°F18.8°C 64% 0.7 mph NE1.1 kmh NE 2.2 mph3.5 kmh 29.75 in1007.5 mb 0.00 in0.0 mm 0.00 in0.0 mm 0.00 in0.0 mm
03:42 AM 79.0°F26.1°C 65.8°F18.8°C 64% 0.7 mph NW1.1 kmh NW 6.0 mph9.7 kmh 29.75 in1007.5 mb 0.00 in0.0 mm 0.00 in0.0 mm 0.00 in0.0 mm
03:41 AM 79.2°F26.2°C 65.8°F18.8°C 64% 2.2 mph 3.5 kmh 4.5 mph7.2 kmh 29.75 in1007.5 mb 0.00 in0.0 mm 0.00 in0.0 mm 0.00 in0.0 mm
03:40 AM 79.2°F26.2°C 65.8°F18.8°C 64% 1.6 mph 2.6 kmh 3.8 mph6.1 kmh 29.75 in1007.5 mb 0.00 in0.0 mm 0.00 in0.0 mm 0.00 in0.0 mm
03:39 AM 79.2°F26.2°C 65.8°F18.8°C 64% 1.6 mph NE2.6 kmh NE 3.1 mph5.0 kmh 29.75 in1007.5 mb 0.00 in0.0 mm 0.00 in0.0 mm 0.00 in0.0 mm
03:38 AM 79.2°F26.2°C 65.8°F18.8°C 64% 1.6 mph NE2.6 kmh NE 3.1 mph5.0 kmh 29.75 in1007.5 mb 0.00 in0.0 mm 0.00 in0.0 mm 0.00 in0.0 mm
03:37 AM 79.2°F26.2°C 65.8°F18.8°C 64% Calm Calm 3.1 mph5.0 kmh 29.75 in1007.5 mb 0.00 in0.0 mm 0.00 in0.0 mm 0.00 in0.0 mm
03:35 AM 79.2°F26.2°C 65.8°F18.8°C 64% 0.7 mph E1.1 kmh E 4.5 mph7.2 kmh 29.75 in1007.5 mb 0.00 in0.0 mm 0.00 in0.0 mm 0.00 in0.0 mm
03:34 AM 79.2°F26.2°C 65.8°F18.8°C 64% 2.2 mph 3.5 kmh 4.5 mph7.2 kmh 29.75 in1007.5 mb 0.00 in0.0 mm 0.00 in0.0 mm 0.00 in0.0 mm
03:33 AM 79.2°F26.2°C 65.8°F18.8°C 64% 1.6 mph NW2.6 kmh NW 3.8 mph6.1 kmh 29.75 in1007.5 mb 0.00 in0.0 mm 0.00 in0.0 mm 0.00 in0.0 mm
03:32 AM 79.3°F26.3°C 66.0°F18.9°C 64% 1.6 mph NE2.6 kmh NE 4.5 mph7.2 kmh 29.75 in1007.5 mb 0.00 in0.0 mm 0.00 in0.0 mm 0.00 in0.0 mm
03:31 AM 79.2°F26.2°C 65.8°F18.8°C 64% 1.6 mph 2.6 kmh 3.8 mph6.1 kmh 29.75 in1007.5 mb 0.00 in0.0 mm 0.00 in0.0 mm 0.00 in0.0 mm
03:29 AM 79.2°F26.2°C 65.8°F18.8°C 64% 1.6 mph 2.6 kmh 5.4 mph8.7 kmh 29.75 in1007.5 mb 0.00 in0.0 mm 0.00 in0.0 mm 0.00 in0.0 mm
03:28 AM 79.2°F26.2°C 65.8°F18.8°C 64% 1.6 mph NE2.6 kmh NE 6.9 mph11.1 kmh 29.75 in1007.5 mb 0.00 in0.0 mm 0.00 in0.0 mm 0.00 in0.0 mm
03:27 AM 79.3°F26.3°C 66.0°F18.9°C 64% 3.1 mph E5.0 kmh E 8.3 mph13.4 kmh 29.75 in1007.5 mb 0.00 in0.0 mm 0.00 in0.0 mm 0.00 in0.0 mm
03:26 AM 79.3°F26.3°C 66.0°F18.9°C 64% 3.8 mph NE6.1 kmh NE 6.9 mph11.1 kmh 29.75 in1007.5 mb 0.00 in0.0 mm 0.00 in0.0 mm 0.00 in0.0 mm
03:25 AM 79.3°F26.3°C 66.0°F18.9°C 64% 1.6 mph 2.6 kmh 4.5 mph7.2 kmh 29.75 in1007.5 mb 0.00 in0.0 mm 0.00 in0.0 mm 0.00 in0.0 mm
03:24 AM 79.3°F26.3°C 66.0°F18.9°C 64% 3.1 mph 5.0 kmh 4.5 mph7.2 kmh 29.75 in1007.5 mb 0.00 in0.0 mm 0.00 in0.0 mm 0.00 in0.0 mm
03:22 AM 79.3°F26.3°C 66.0°F18.9°C 64% 3.1 mph NE5.0 kmh NE 5.4 mph8.7 kmh 29.75 in1007.5 mb 0.00 in0.0 mm 0.00 in0.0 mm 0.00 in0.0 mm
03:21 AM 79.3°F26.3°C 65.7°F18.7°C 63% 1.6 mph E2.6 kmh E 6.0 mph9.7 kmh 29.75 in1007.5 mb 0.00 in0.0 mm 0.00 in0.0 mm 0.00 in0.0 mm
03:20 AM 79.3°F26.3°C 66.0°F18.9°C 64% 3.1 mph E5.0 kmh E 6.0 mph9.7 kmh 29.75 in1007.5 mb 0.00 in0.0 mm 0.00 in0.0 mm 0.00 in0.0 mm
03:19 AM 79.3°F26.3°C 66.0°F18.9°C 64% 3.1 mph NE5.0 kmh NE -- 29.75 in1007.5 mb 0.00 in0.0 mm 0.00 in0.0 mm 0.00 in0.0 mm
03:16 AM 79.3°F26.3°C 65.7°F18.7°C 63% 3.1 mph NE5.0 kmh NE -- 29.75 in1007.5 mb 0.00 in0.0 mm 0.00 in0.0 mm 0.00 in0.0 mm
03:14 AM 79.3°F26.3°C 65.7°F18.7°C 63% 3.1 mph W5.0 kmh W 6.9 mph11.1 kmh 29.75 in1007.5 mb 0.00 in0.0 mm 0.00 in0.0 mm 0.00 in0.0 mm
03:13 AM 79.3°F26.3°C 65.7°F18.7°C 63% 2.2 mph 3.5 kmh 8.3 mph13.4 kmh 29.76 in1007.8 mb 0.00 in0.0 mm 0.00 in0.0 mm 0.00 in0.0 mm
03:12 AM 79.3°F26.3°C 65.7°F18.7°C 63% 3.8 mph NE6.1 kmh NE 8.3 mph13.4 kmh 29.76 in1007.8 mb 0.00 in0.0 mm 0.00 in0.0 mm 0.00 in0.0 mm
03:11 AM 79.3°F26.3°C 65.7°F18.7°C 63% 3.1 mph 5.0 kmh 5.4 mph8.7 kmh 29.76 in1007.8 mb 0.00 in0.0 mm 0.00 in0.0 mm 0.00 in0.0 mm
03:10 AM 79.3°F26.3°C 65.7°F18.7°C 63% 3.1 mph E5.0 kmh E 5.4 mph8.7 kmh 29.76 in1007.8 mb 0.00 in0.0 mm 0.00 in0.0 mm 0.00 in0.0 mm
03:09 AM 79.3°F26.3°C 65.7°F18.7°C 63% 3.1 mph E5.0 kmh E 6.0 mph9.7 kmh 29.76 in1007.8 mb 0.00 in0.0 mm 0.00 in0.0 mm 0.00 in0.0 mm
03:07 AM 79.3°F26.3°C 65.7°F18.7°C 63% 3.1 mph NNE5.0 kmh NNE 6.0 mph9.7 kmh 29.76 in1007.8 mb 0.00 in0.0 mm 0.00 in0.0 mm 0.00 in0.0 mm
03:06 AM 79.5°F26.4°C 65.8°F18.8°C 63% 1.6 mph NE2.6 kmh NE 6.0 mph9.7 kmh 29.76 in1007.8 mb 0.00 in0.0 mm 0.00 in0.0 mm 0.00 in0.0 mm
03:05 AM 79.5°F26.4°C 65.8°F18.8°C 63% 1.6 mph SE2.6 kmh SE 4.5 mph7.2 kmh 29.76 in1007.8 mb 0.00 in0.0 mm 0.00 in0.0 mm 0.00 in0.0 mm
03:04 AM 79.5°F26.4°C 65.3°F18.5°C 62% 1.6 mph 2.6 kmh 6.9 mph11.1 kmh 29.76 in1007.8 mb 0.00 in0.0 mm 0.00 in0.0 mm 0.00 in0.0 mm
03:03 AM 79.5°F26.4°C 65.3°F18.5°C 62% 3.8 mph NE6.1 kmh NE 6.9 mph11.1 kmh 29.76 in1007.8 mb 0.00 in0.0 mm 0.00 in0.0 mm 0.00 in0.0 mm
03:02 AM 79.5°F26.4°C 65.3°F18.5°C 62% 1.6 mph E2.6 kmh E 6.9 mph11.1 kmh 29.76 in1007.8 mb 0.00 in0.0 mm 0.00 in0.0 mm 0.00 in0.0 mm
03:00 AM 79.5°F26.4°C 65.3°F18.5°C 62% 3.1 mph NE5.0 kmh NE 6.0 mph9.7 kmh 29.76 in1007.8 mb 0.00 in0.0 mm 0.00 in0.0 mm 0.00 in0.0 mm
02:59 AM 79.5°F26.4°C 65.3°F18.5°C 62% 0.7 mph NE1.1 kmh NE 6.0 mph9.7 kmh 29.76 in1007.8 mb 0.00 in0.0 mm 0.00 in0.0 mm 0.00 in0.0 mm
02:58 AM 79.5°F26.4°C 65.3°F18.5°C 62% 2.2 mph NE3.5 kmh NE 3.8 mph6.1 kmh 29.76 in1007.8 mb 0.00 in0.0 mm 0.00 in0.0 mm 0.00 in0.0 mm
02:57 AM 79.5°F26.4°C 64.9°F18.3°C 61% 1.6 mph NE2.6 kmh NE 6.0 mph9.7 kmh 29.76 in1007.8 mb 0.00 in0.0 mm 0.00 in0.0 mm 0.00 in0.0 mm
02:56 AM 79.5°F26.4°C 64.9°F18.3°C 61% 2.2 mph NE3.5 kmh NE 6.0 mph9.7 kmh 29.76 in1007.8 mb 0.00 in0.0 mm 0.00 in0.0 mm 0.00 in0.0 mm
02:54 AM 79.5°F26.4°C 64.9°F18.3°C 61% 2.2 mph E3.5 kmh E 5.4 mph8.7 kmh 29.76 in1007.8 mb 0.00 in0.0 mm 0.00 in0.0 mm 0.00 in0.0 mm
02:53 AM 79.7°F26.5°C 65.1°F18.4°C 61% 0.7 mph NE1.1 kmh NE 3.8 mph6.1 kmh 29.76 in1007.8 mb 0.00 in0.0 mm 0.00 in0.0 mm 0.00 in0.0 mm
02:52 AM 79.7°F26.5°C 65.1°F18.4°C 61% 0.7 mph E1.1 kmh E 3.8 mph6.1 kmh 29.76 in1007.8 mb 0.00 in0.0 mm 0.00 in0.0 mm 0.00 in0.0 mm
02:51 AM 79.7°F26.5°C 65.1°F18.4°C 61% 3.1 mph NE5.0 kmh NE 6.0 mph9.7 kmh 29.76 in1007.8 mb 0.00 in0.0 mm 0.00 in0.0 mm 0.00 in0.0 mm
02:50 AM 79.7°F26.5°C 64.6°F18.1°C 60% 0.7 mph E1.1 kmh E 5.4 mph8.7 kmh 29.76 in1007.8 mb 0.00 in0.0 mm 0.00 in0.0 mm 0.00 in0.0 mm
02:49 AM 79.7°F26.5°C 64.6°F18.1°C 60% 1.6 mph 2.6 kmh 4.5 mph7.2 kmh 29.76 in1007.8 mb 0.00 in0.0 mm 0.00 in0.0 mm 0.00 in0.0 mm
02:47 AM 79.7°F26.5°C 64.6°F18.1°C 60% 2.2 mph NE3.5 kmh NE 4.5 mph7.2 kmh 29.76 in1007.8 mb 0.00 in0.0 mm 0.00 in0.0 mm 0.00 in0.0 mm
02:46 AM 79.9°F26.6°C 64.8°F18.2°C 60% 0.7 mph E1.1 kmh E 5.4 mph8.7 kmh 29.76 in1007.8 mb 0.00 in0.0 mm 0.00 in0.0 mm 0.00 in0.0 mm
02:45 AM 79.9°F26.6°C 64.8°F18.2°C 60% 1.6 mph NE2.6 kmh NE 3.8 mph6.1 kmh 29.76 in1007.8 mb 0.00 in0.0 mm 0.00 in0.0 mm 0.00 in0.0 mm
02:44 AM 79.9°F26.6°C 64.8°F18.2°C 60% 1.6 mph NE2.6 kmh NE 6.9 mph11.1 kmh 29.76 in1007.8 mb 0.00 in0.0 mm 0.00 in0.0 mm 0.00 in0.0 mm
02:43 AM 79.7°F26.5°C 64.6°F18.1°C 60% 3.1 mph 5.0 kmh 6.9 mph11.1 kmh 29.76 in1007.8 mb 0.00 in0.0 mm 0.00 in0.0 mm 0.00 in0.0 mm
02:42 AM 79.9°F26.6°C 64.8°F18.2°C 60% 0.7 mph E1.1 kmh E 3.8 mph6.1 kmh 29.76 in1007.8 mb 0.00 in0.0 mm 0.00 in0.0 mm 0.00 in0.0 mm
02:40 AM 79.9°F26.6°C 64.2°F17.9°C 59% 3.1 mph E5.0 kmh E 5.4 mph8.7 kmh 29.76 in1007.8 mb 0.00 in0.0 mm 0.00 in0.0 mm 0.00 in0.0 mm
02:39 AM 79.9°F26.6°C 64.2°F17.9°C 59% 2.2 mph 3.5 kmh 6.0 mph9.7 kmh 29.76 in1007.8 mb 0.00 in0.0 mm 0.00 in0.0 mm 0.00 in0.0 mm
02:38 AM 80.1°F26.7°C 64.4°F18.0°C 59% 2.2 mph E3.5 kmh E 5.4 mph8.7 kmh 29.76 in1007.8 mb 0.00 in0.0 mm 0.00 in0.0 mm 0.00 in0.0 mm
02:37 AM 80.1°F26.7°C 64.4°F18.0°C 59% 2.2 mph NE3.5 kmh NE 4.5 mph7.2 kmh 29.76 in1007.8 mb 0.00 in0.0 mm 0.00 in0.0 mm 0.00 in0.0 mm
02:36 AM 80.1°F26.7°C 64.4°F18.0°C 59% 2.2 mph E3.5 kmh E 4.5 mph7.2 kmh 29.76 in1007.8 mb 0.00 in0.0 mm 0.00 in0.0 mm 0.00 in0.0 mm
02:35 AM 80.1°F26.7°C 64.4°F18.0°C 59% 1.6 mph NE2.6 kmh NE 6.0 mph9.7 kmh 29.77 in1008.1 mb 0.00 in0.0 mm 0.00 in0.0 mm 0.00 in0.0 mm
02:33 AM 80.1°F26.7°C 64.4°F18.0°C 59% 1.6 mph 2.6 kmh 4.5 mph7.2 kmh 29.76 in1007.8 mb 0.00 in0.0 mm 0.00 in0.0 mm 0.00 in0.0 mm
02:32 AM 80.1°F26.7°C 64.4°F18.0°C 59% 1.6 mph NW2.6 kmh NW 4.5 mph7.2 kmh 29.77 in1008.1 mb 0.00 in0.0 mm 0.00 in0.0 mm 0.00 in0.0 mm
02:31 AM 80.1°F26.7°C 64.4°F18.0°C 59% 2.2 mph E3.5 kmh E 6.0 mph9.7 kmh 29.77 in1008.1 mb 0.00 in0.0 mm 0.00 in0.0 mm 0.00 in0.0 mm
02:30 AM 80.2°F26.8°C 64.6°F18.1°C 59% 3.1 mph 5.0 kmh 6.0 mph9.7 kmh 29.77 in1008.1 mb 0.00 in0.0 mm 0.00 in0.0 mm 0.00 in0.0 mm
02:29 AM 80.1°F26.7°C 64.4°F18.0°C 59% 1.6 mph E2.6 kmh E 6.0 mph9.7 kmh 29.77 in1008.1 mb 0.00 in0.0 mm 0.00 in0.0 mm 0.00 in0.0 mm
02:27 AM 80.2°F26.8°C 64.6°F18.1°C 59% 2.2 mph NE3.5 kmh NE 6.0 mph9.7 kmh 29.77 in1008.1 mb 0.00 in0.0 mm 0.00 in0.0 mm 0.00 in0.0 mm
02:26 AM 80.2°F26.8°C 64.6°F18.1°C 59% 2.2 mph E3.5 kmh E 5.4 mph8.7 kmh 29.76 in1007.8 mb 0.00 in0.0 mm 0.00 in0.0 mm 0.00 in0.0 mm
02:25 AM 80.2°F26.8°C 64.6°F18.1°C 59% 2.2 mph NW3.5 kmh NW 4.5 mph7.2 kmh 29.76 in1007.8 mb 0.00 in0.0 mm 0.00 in0.0 mm 0.00 in0.0 mm
02:24 AM 80.2°F26.8°C 64.6°F18.1°C 59% 2.2 mph NE3.5 kmh NE 6.9 mph11.1 kmh 29.77 in1008.1 mb 0.00 in0.0 mm 0.00 in0.0 mm 0.00 in0.0 mm
02:23 AM 80.2°F26.8°C 64.6°F18.1°C 59% 3.1 mph E5.0 kmh E 6.9 mph11.1 kmh 29.77 in1008.1 mb 0.00 in0.0 mm 0.00 in0.0 mm 0.00 in0.0 mm
02:22 AM 80.2°F26.8°C 64.6°F18.1°C 59% 3.1 mph 5.0 kmh 6.9 mph11.1 kmh 29.76 in1007.8 mb 0.00 in0.0 mm 0.00 in0.0 mm 0.00 in0.0 mm
02:20 AM 80.2°F26.8°C 64.6°F18.1°C 59% 1.6 mph NE2.6 kmh NE 5.4 mph8.7 kmh 29.77 in1008.1 mb 0.00 in0.0 mm 0.00 in0.0 mm 0.00 in0.0 mm
02:19 AM 80.2°F26.8°C 64.0°F17.8°C 58% 3.1 mph E5.0 kmh E 8.3 mph13.4 kmh 29.77 in1008.1 mb 0.00 in0.0 mm 0.00 in0.0 mm 0.00 in0.0 mm
02:18 AM 80.2°F26.8°C 64.0°F17.8°C 58% 3.1 mph NE5.0 kmh NE 4.5 mph7.2 kmh 29.76 in1007.8 mb 0.00 in0.0 mm 0.00 in0.0 mm 0.00 in0.0 mm
02:17 AM 80.2°F26.8°C 64.0°F17.8°C 58% 2.2 mph E3.5 kmh E 4.5 mph7.2 kmh 29.76 in1007.8 mb 0.00 in0.0 mm 0.00 in0.0 mm 0.00 in0.0 mm
02:16 AM 80.2°F26.8°C 64.0°F17.8°C 58% 3.8 mph NE6.1 kmh NE 9.2 mph14.8 kmh 29.77 in1008.1 mb 0.00 in0.0 mm 0.00 in0.0 mm 0.00 in0.0 mm
02:15 AM 80.2°F26.8°C 64.6°F18.1°C 59% 3.8 mph E6.1 kmh E 6.0 mph9.7 kmh 29.77 in1008.1 mb 0.00 in0.0 mm 0.00 in0.0 mm 0.00 in0.0 mm
02:13 AM 80.2°F26.8°C 64.6°F18.1°C 59% 3.1 mph NE5.0 kmh NE 6.0 mph9.7 kmh 29.77 in1008.1 mb 0.00 in0.0 mm 0.00 in0.0 mm 0.00 in0.0 mm
02:12 AM 80.2°F26.8°C 64.0°F17.8°C 58% 3.1 mph E5.0 kmh E 8.3 mph13.4 kmh 29.77 in1008.1 mb 0.00 in0.0 mm 0.00 in0.0 mm 0.00 in0.0 mm
02:11 AM 80.2°F26.8°C 64.0°F17.8°C 58% 2.2 mph E3.5 kmh E 4.5 mph7.2 kmh 29.77 in1008.1 mb 0.00 in0.0 mm 0.00 in0.0 mm 0.00 in0.0 mm
02:10 AM 80.2°F26.8°C 64.6°F18.1°C 59% 2.2 mph NE3.5 kmh NE 5.4 mph8.7 kmh 29.77 in1008.1 mb 0.00 in0.0 mm 0.00 in0.0 mm 0.00 in0.0 mm
02:09 AM 80.2°F26.8°C 64.0°F17.8°C 58% 3.1 mph SE5.0 kmh SE 6.0 mph9.7 kmh 29.77 in1008.1 mb 0.00 in0.0 mm 0.00 in0.0 mm 0.00 in0.0 mm
02:07 AM 80.2°F26.8°C 64.6°F18.1°C 59% 2.2 mph SE3.5 kmh SE 5.4 mph8.7 kmh 29.77 in1008.1 mb 0.00 in0.0 mm 0.00 in0.0 mm 0.00 in0.0 mm
02:06 AM 80.2°F26.8°C 64.6°F18.1°C 59% 2.2 mph SE3.5 kmh SE 6.9 mph11.1 kmh 29.77 in1008.1 mb 0.00 in0.0 mm 0.00 in0.0 mm 0.00 in0.0 mm
02:05 AM 80.2°F26.8°C 64.6°F18.1°C 59% 4.5 mph NE7.2 kmh NE 6.9 mph11.1 kmh 29.77 in1008.1 mb 0.00 in0.0 mm 0.00 in0.0 mm 0.00 in0.0 mm
02:04 AM 80.2°F26.8°C 64.6°F18.1°C 59% 3.8 mph E6.1 kmh E 6.9 mph11.1 kmh 29.77 in1008.1 mb 0.00 in0.0 mm 0.00 in0.0 mm 0.00 in0.0 mm
02:03 AM 80.2°F26.8°C 64.6°F18.1°C 59% 2.2 mph W3.5 kmh W 8.3 mph13.4 kmh 29.77 in1008.1 mb 0.00 in0.0 mm 0.00 in0.0 mm 0.00 in0.0 mm
02:02 AM 80.4°F26.9°C 64.8°F18.2°C 59% 3.8 mph NNE6.1 kmh NNE 8.3 mph13.4 kmh 29.77 in1008.1 mb 0.00 in0.0 mm 0.00 in0.0 mm 0.00 in0.0 mm
02:00 AM 80.2°F26.8°C 64.6°F18.1°C 59% 2.2 mph NE3.5 kmh NE 6.0 mph9.7 kmh 29.77 in1008.1 mb 0.00 in0.0 mm 0.00 in0.0 mm 0.00 in0.0 mm
01:59 AM 80.2°F26.8°C 64.6°F18.1°C 59% 2.2 mph NE3.5 kmh NE 6.0 mph9.7 kmh 29.77 in1008.1 mb 0.00 in0.0 mm 0.00 in0.0 mm 0.00 in0.0 mm
01:58 AM 80.2°F26.8°C 64.6°F18.1°C 59% 2.2 mph NE3.5 kmh NE 5.4 mph8.7 kmh 29.77 in1008.1 mb 0.00 in0.0 mm 0.00 in0.0 mm 0.00 in0.0 mm
01:57 AM 80.2°F26.8°C 64.6°F18.1°C 59% 2.2 mph 3.5 kmh 6.0 mph9.7 kmh 29.77 in1008.1 mb 0.00 in0.0 mm 0.00 in0.0 mm 0.00 in0.0 mm
01:56 AM 80.2°F26.8°C 64.6°F18.1°C 59% 1.6 mph 2.6 kmh 5.4 mph8.7 kmh 29.77 in1008.1 mb 0.00 in0.0 mm 0.00 in0.0 mm 0.00 in0.0 mm
01:55 AM 80.2°F26.8°C 64.6°F18.1°C 59% 2.2 mph NNE3.5 kmh NNE 5.4 mph8.7 kmh 29.77 in1008.1 mb 0.00 in0.0 mm 0.00 in0.0 mm 0.00 in0.0 mm
01:53 AM 80.2°F26.8°C 64.6°F18.1°C 59% 2.2 mph E3.5 kmh E 6.0 mph9.7 kmh 29.77 in1008.1 mb 0.00 in0.0 mm 0.00 in0.0 mm 0.00 in0.0 mm
01:52 AM 80.2°F26.8°C 64.6°F18.1°C 59% 2.2 mph 3.5 kmh 6.9 mph11.1 kmh 29.77 in1008.1 mb 0.00 in0.0 mm 0.00 in0.0 mm 0.00 in0.0 mm
01:51 AM 80.2°F26.8°C 64.6°F18.1°C 59% 3.8 mph NE6.1 kmh NE 6.9 mph11.1 kmh 29.77 in1008.1 mb 0.00 in0.0 mm 0.00 in0.0 mm 0.00 in0.0 mm
01:50 AM 80.2°F26.8°C 64.6°F18.1°C 59% 2.2 mph NW3.5 kmh NW 6.0 mph9.7 kmh 29.78 in1008.5 mb 0.00 in0.0 mm 0.00 in0.0 mm 0.00 in0.0 mm
01:49 AM 80.2°F26.8°C 65.1°F18.4°C 60% 3.1 mph NE5.0 kmh NE 6.9 mph11.1 kmh 29.77 in1008.1 mb 0.00 in0.0 mm 0.00 in0.0 mm 0.00 in0.0 mm
01:48 AM 80.4°F26.9°C 65.3°F18.5°C 60% 2.2 mph NE3.5 kmh NE 6.9 mph11.1 kmh 29.78 in1008.5 mb 0.00 in0.0 mm 0.00 in0.0 mm 0.00 in0.0 mm
01:46 AM 80.2°F26.8°C 65.1°F18.4°C 60% 3.1 mph 5.0 kmh 6.9 mph11.1 kmh 29.78 in1008.5 mb 0.00 in0.0 mm 0.00 in0.0 mm 0.00 in0.0 mm
01:45 AM 80.4°F26.9°C 65.3°F18.5°C 60% 2.2 mph E3.5 kmh E 5.4 mph8.7 kmh 29.78 in1008.5 mb 0.00 in0.0 mm 0.00 in0.0 mm 0.00 in0.0 mm
01:44 AM 80.4°F26.9°C 65.3°F18.5°C 60% 3.1 mph SE5.0 kmh SE 5.4 mph8.7 kmh 29.78 in1008.5 mb 0.00 in0.0 mm 0.00 in0.0 mm 0.00 in0.0 mm
01:43 AM 80.4°F26.9°C 65.3°F18.5°C 60% 3.1 mph NE5.0 kmh NE 6.0 mph9.7 kmh 29.78 in1008.5 mb 0.00 in0.0 mm 0.00 in0.0 mm 0.00 in0.0 mm
01:42 AM 80.2°F26.8°C 65.1°F18.4°C 60% 1.6 mph NE2.6 kmh NE 6.9 mph11.1 kmh 29.78 in1008.5 mb 0.00 in0.0 mm 0.00 in0.0 mm 0.00 in0.0 mm
01:40 AM 80.2°F26.8°C 65.1°F18.4°C 60% 3.1 mph NE5.0 kmh NE 3.8 mph6.1 kmh 29.78 in1008.5 mb 0.00 in0.0 mm 0.00 in0.0 mm 0.00 in0.0 mm
01:39 AM 80.4°F26.9°C 65.3°F18.5°C 60% 2.2 mph NE3.5 kmh NE 4.5 mph7.2 kmh 29.78 in1008.5 mb 0.00 in0.0 mm 0.00 in0.0 mm 0.00 in0.0 mm
01:38 AM 80.4°F26.9°C 65.3°F18.5°C 60% 2.2 mph NE3.5 kmh NE 5.4 mph8.7 kmh 29.78 in1008.5 mb 0.00 in0.0 mm 0.00 in0.0 mm 0.00 in0.0 mm
01:37 AM 80.4°F26.9°C 65.3°F18.5°C 60% 2.2 mph NE3.5 kmh NE 5.4 mph8.7 kmh 29.78 in1008.5 mb 0.00 in0.0 mm 0.00 in0.0 mm 0.00 in0.0 mm
01:36 AM 80.4°F26.9°C 65.3°F18.5°C 60% 3.1 mph 5.0 kmh 6.0 mph9.7 kmh 29.78 in1008.5 mb 0.00 in0.0 mm 0.00 in0.0 mm 0.00 in0.0 mm
01:35 AM 80.4°F26.9°C 65.3°F18.5°C 60% 1.6 mph SSE2.6 kmh SSE 4.5 mph7.2 kmh 29.78 in1008.5 mb 0.00 in0.0 mm 0.00 in0.0 mm 0.00 in0.0 mm
01:33 AM 80.4°F26.9°C 65.3°F18.5°C 60% 2.2 mph NE3.5 kmh NE 5.4 mph8.7 kmh 29.78 in1008.5 mb 0.00 in0.0 mm 0.00 in0.0 mm 0.00 in0.0 mm
01:32 AM 80.4°F26.9°C 65.3°F18.5°C 60% 1.6 mph 2.6 kmh 5.4 mph8.7 kmh 29.78 in1008.5 mb 0.00 in0.0 mm 0.00 in0.0 mm 0.00 in0.0 mm
01:31 AM 80.4°F26.9°C 65.3°F18.5°C 60% 2.2 mph NE3.5 kmh NE 5.4 mph8.7 kmh 29.78 in1008.5 mb 0.00 in0.0 mm 0.00 in0.0 mm 0.00 in0.0 mm
01:30 AM 80.6°F27.0°C 65.5°F18.6°C 60% 2.2 mph NE3.5 kmh NE 4.5 mph7.2 kmh 29.78 in1008.5 mb 0.00 in0.0 mm 0.00 in0.0 mm 0.00 in0.0 mm
01:29 AM 80.4°F26.9°C 65.3°F18.5°C 60% 1.6 mph NE2.6 kmh NE 4.5 mph7.2 kmh 29.78 in1008.5 mb 0.00 in0.0 mm 0.00 in0.0 mm 0.00 in0.0 mm
01:28 AM 80.6°F27.0°C 65.8°F18.8°C 61% 2.2 mph NE3.5 kmh NE 4.5 mph7.2 kmh 29.78 in1008.5 mb 0.00 in0.0 mm 0.00 in0.0 mm 0.00 in0.0 mm
01:26 AM 80.6°F27.0°C 65.5°F18.6°C 60% 1.6 mph 2.6 kmh 5.4 mph8.7 kmh 29.78 in1008.5 mb 0.00 in0.0 mm 0.00 in0.0 mm 0.00 in0.0 mm
01:25 AM 80.6°F27.0°C 65.5°F18.6°C 60% 2.2 mph 3.5 kmh 6.0 mph9.7 kmh 29.78 in1008.5 mb 0.00 in0.0 mm 0.00 in0.0 mm 0.00 in0.0 mm
01:24 AM 80.6°F27.0°C 65.5°F18.6°C 60% 2.2 mph NW3.5 kmh NW 6.0 mph9.7 kmh 29.78 in1008.5 mb 0.00 in0.0 mm 0.00 in0.0 mm 0.00 in0.0 mm
01:23 AM 80.6°F27.0°C 65.5°F18.6°C 60% 2.2 mph 3.5 kmh 3.8 mph6.1 kmh 29.78 in1008.5 mb 0.00 in0.0 mm 0.00 in0.0 mm 0.00 in0.0 mm
01:22 AM 80.6°F27.0°C 65.5°F18.6°C 60% 1.6 mph NE2.6 kmh NE 5.4 mph8.7 kmh 29.78 in1008.5 mb 0.00 in0.0 mm 0.00 in0.0 mm 0.00 in0.0 mm
01:21 AM 80.6°F27.0°C 65.5°F18.6°C 60% 1.6 mph E2.6 kmh E 4.5 mph7.2 kmh 29.78 in1008.5 mb 0.00 in0.0 mm 0.00 in0.0 mm 0.00 in0.0 mm
01:19 AM 80.6°F27.0°C 65.5°F18.6°C 60% 1.6 mph NE2.6 kmh NE 4.5 mph7.2 kmh 29.78 in1008.5 mb 0.00 in0.0 mm 0.00 in0.0 mm 0.00 in0.0 mm
01:18 AM 80.6°F27.0°C 65.5°F18.6°C 60% 3.1 mph NW5.0 kmh NW 6.9 mph11.1 kmh 29.79 in1008.8 mb 0.00 in0.0 mm 0.00 in0.0 mm 0.00 in0.0 mm
01:17 AM 80.8°F27.1°C 65.7°F18.7°C 60% 3.8 mph E6.1 kmh E 6.9 mph11.1 kmh 29.78 in1008.5 mb 0.00 in0.0 mm 0.00 in0.0 mm 0.00 in0.0 mm
01:16 AM 80.8°F27.1°C 65.7°F18.7°C 60% 2.2 mph NE3.5 kmh NE 6.0 mph9.7 kmh 29.78 in1008.5 mb 0.00 in0.0 mm 0.00 in0.0 mm 0.00 in0.0 mm
01:15 AM 80.8°F27.1°C 65.7°F18.7°C 60% 2.2 mph ENE3.5 kmh ENE 6.0 mph9.7 kmh 29.78 in1008.5 mb 0.00 in0.0 mm 0.00 in0.0 mm 0.00 in0.0 mm
01:13 AM 80.8°F27.1°C 65.7°F18.7°C 60% 0.7 mph 1.1 kmh 3.1 mph5.0 kmh 29.78 in1008.5 mb 0.00 in0.0 mm 0.00 in0.0 mm 0.00 in0.0 mm
01:12 AM 80.8°F27.1°C 65.7°F18.7°C 60% 2.2 mph 3.5 kmh 6.0 mph9.7 kmh 29.79 in1008.8 mb 0.00 in0.0 mm 0.00 in0.0 mm 0.00 in0.0 mm
01:11 AM 80.8°F27.1°C 65.7°F18.7°C 60% 3.1 mph 5.0 kmh 6.0 mph9.7 kmh 29.79 in1008.8 mb 0.00 in0.0 mm 0.00 in0.0 mm 0.00 in0.0 mm
01:10 AM 80.8°F27.1°C 65.7°F18.7°C 60% 3.1 mph NE5.0 kmh NE 6.0 mph9.7 kmh 29.79 in1008.8 mb 0.00 in0.0 mm 0.00 in0.0 mm 0.00 in0.0 mm
01:09 AM 81.5°F27.5°C 66.2°F19.0°C 60% 3.8 mph SE6.1 kmh SE 6.0 mph9.7 kmh 29.79 in1008.8 mb 0.00 in0.0 mm 0.00 in0.0 mm 0.00 in0.0 mm
01:08 AM 81.0°F27.2°C 65.8°F18.8°C 60% 2.2 mph 3.5 kmh 7.6 mph12.2 kmh 29.79 in1008.8 mb 0.00 in0.0 mm 0.00 in0.0 mm 0.00 in0.0 mm
01:06 AM 80.8°F27.1°C 65.7°F18.7°C 60% 3.1 mph NE5.0 kmh NE 7.6 mph12.2 kmh 29.79 in1008.8 mb 0.00 in0.0 mm 0.00 in0.0 mm 0.00 in0.0 mm
01:05 AM 80.8°F27.1°C 65.7°F18.7°C 60% 3.1 mph NE5.0 kmh NE 6.9 mph11.1 kmh 29.79 in1008.8 mb 0.00 in0.0 mm 0.00 in0.0 mm 0.00 in0.0 mm
01:04 AM 80.8°F27.1°C 65.7°F18.7°C 60% 3.1 mph NE5.0 kmh NE 5.4 mph8.7 kmh 29.79 in1008.8 mb 0.00 in0.0 mm 0.00 in0.0 mm 0.00 in0.0 mm
01:03 AM 81.0°F27.2°C 65.8°F18.8°C 60% 1.6 mph SE2.6 kmh SE 6.0 mph9.7 kmh 29.79 in1008.8 mb 0.00 in0.0 mm 0.00 in0.0 mm 0.00 in0.0 mm
01:02 AM 80.8°F27.1°C 65.7°F18.7°C 60% 3.1 mph NE5.0 kmh NE 6.0 mph9.7 kmh 29.79 in1008.8 mb 0.00 in0.0 mm 0.00 in0.0 mm 0.00 in0.0 mm
01:01 AM 80.8°F27.1°C 65.7°F18.7°C 60% 3.1 mph S5.0 kmh S 6.9 mph11.1 kmh 29.79 in1008.8 mb 0.00 in0.0 mm 0.00 in0.0 mm 0.00 in0.0 mm
12:59 AM 80.8°F27.1°C 65.7°F18.7°C 60% 3.1 mph 5.0 kmh 6.9 mph11.1 kmh 29.79 in1008.8 mb 0.00 in0.0 mm 0.00 in0.0 mm 0.00 in0.0 mm
12:58 AM 80.8°F27.1°C 65.7°F18.7°C 60% 2.2 mph E3.5 kmh E 7.6 mph12.2 kmh 29.79 in1008.8 mb 0.00 in0.0 mm 0.00 in0.0 mm 0.00 in0.0 mm
12:57 AM 80.8°F27.1°C 65.7°F18.7°C 60% 3.8 mph NE6.1 kmh NE 7.6 mph12.2 kmh 29.79 in1008.8 mb 0.00 in0.0 mm 0.00 in0.0 mm 0.00 in0.0 mm
12:56 AM 80.8°F27.1°C 65.7°F18.7°C 60% 2.2 mph 3.5 kmh 7.6 mph12.2 kmh 29.79 in1008.8 mb 0.00 in0.0 mm 0.00 in0.0 mm 0.00 in0.0 mm
12:55 AM 80.8°F27.1°C 65.7°F18.7°C 60% 3.8 mph NE6.1 kmh NE 7.6 mph12.2 kmh 29.79 in1008.8 mb 0.00 in0.0 mm 0.00 in0.0 mm 0.00 in0.0 mm
12:53 AM 80.8°F27.1°C 65.7°F18.7°C 60% 3.1 mph E5.0 kmh E 6.9 mph11.1 kmh 29.79 in1008.8 mb 0.00 in0.0 mm 0.00 in0.0 mm 0.00 in0.0 mm
12:52 AM 80.8°F27.1°C 65.7°F18.7°C 60% 2.2 mph NE3.5 kmh NE 4.5 mph7.2 kmh 29.79 in1008.8 mb 0.00 in0.0 mm 0.00 in0.0 mm 0.00 in0.0 mm
12:51 AM 81.0°F27.2°C 65.8°F18.8°C 60% 3.1 mph 5.0 kmh 5.4 mph8.7 kmh 29.79 in1008.8 mb 0.00 in0.0 mm 0.00 in0.0 mm 0.00 in0.0 mm
12:50 AM 80.8°F27.1°C 66.0°F18.9°C 61% 2.2 mph WNW3.5 kmh WNW 5.4 mph8.7 kmh 29.79 in1008.8 mb 0.00 in0.0 mm 0.00 in0.0 mm 0.00 in0.0 mm
12:49 AM 80.8°F27.1°C 65.7°F18.7°C 60% 2.2 mph W3.5 kmh W 5.4 mph8.7 kmh 29.79 in1008.8 mb 0.00 in0.0 mm 0.00 in0.0 mm 0.00 in0.0 mm
12:48 AM 80.8°F27.1°C 66.0°F18.9°C 61% 3.8 mph ENE6.1 kmh ENE 6.0 mph9.7 kmh 29.79 in1008.8 mb 0.00 in0.0 mm 0.00 in0.0 mm 0.00 in0.0 mm
12:46 AM 80.8°F27.1°C 66.0°F18.9°C 61% 3.1 mph NE5.0 kmh NE 6.0 mph9.7 kmh 29.79 in1008.8 mb 0.00 in0.0 mm 0.00 in0.0 mm 0.00 in0.0 mm
12:45 AM 80.8°F27.1°C 66.0°F18.9°C 61% 3.8 mph 6.1 kmh 11.4 mph18.3 kmh 29.79 in1008.8 mb 0.00 in0.0 mm 0.00 in0.0 mm 0.00 in0.0 mm
12:44 AM 81.0°F27.2°C 66.2°F19.0°C 61% 4.5 mph 7.2 kmh 11.4 mph18.3 kmh 29.80 in1009.1 mb 0.00 in0.0 mm 0.00 in0.0 mm 0.00 in0.0 mm
12:43 AM 80.8°F27.1°C 66.0°F18.9°C 61% 3.1 mph NE5.0 kmh NE 7.6 mph12.2 kmh 29.79 in1008.8 mb 0.00 in0.0 mm 0.00 in0.0 mm 0.00 in0.0 mm
12:42 AM 80.8°F27.1°C 66.0°F18.9°C 61% 2.2 mph NE3.5 kmh NE 7.6 mph12.2 kmh 29.79 in1008.8 mb 0.00 in0.0 mm 0.00 in0.0 mm 0.00 in0.0 mm
12:41 AM 80.8°F27.1°C 66.0°F18.9°C 61% 2.2 mph E3.5 kmh E 5.4 mph8.7 kmh 29.79 in1008.8 mb 0.00 in0.0 mm 0.00 in0.0 mm 0.00 in0.0 mm
12:39 AM 81.0°F27.2°C 66.2°F19.0°C 61% 3.1 mph WNW5.0 kmh WNW 6.0 mph9.7 kmh 29.79 in1008.8 mb 0.00 in0.0 mm 0.00 in0.0 mm 0.00 in0.0 mm
12:38 AM 80.8°F27.1°C 66.0°F18.9°C 61% 3.1 mph E5.0 kmh E 7.6 mph12.2 kmh 29.79 in1008.8 mb 0.00 in0.0 mm 0.00 in0.0 mm 0.00 in0.0 mm
12:37 AM 80.8°F27.1°C 66.0°F18.9°C 61% 2.2 mph 3.5 kmh 8.3 mph13.4 kmh 29.79 in1008.8 mb 0.00 in0.0 mm 0.00 in0.0 mm 0.00 in0.0 mm
12:36 AM 81.0°F27.2°C 66.2°F19.0°C 61% 4.5 mph 7.2 kmh 8.3 mph13.4 kmh 29.79 in1008.8 mb 0.00 in0.0 mm 0.00 in0.0 mm 0.00 in0.0 mm
12:35 AM 81.0°F27.2°C 66.7°F19.3°C 62% 3.1 mph NNW5.0 kmh NNW 6.0 mph9.7 kmh 29.79 in1008.8 mb 0.00 in0.0 mm 0.00 in0.0 mm 0.00 in0.0 mm
12:34 AM 81.0°F27.2°C 66.7°F19.3°C 62% 2.2 mph NW3.5 kmh NW 6.0 mph9.7 kmh 29.79 in1008.8 mb 0.00 in0.0 mm 0.00 in0.0 mm 0.00 in0.0 mm
12:32 AM 81.0°F27.2°C 66.7°F19.3°C 62% 3.1 mph NW5.0 kmh NW 6.0 mph9.7 kmh 29.79 in1008.8 mb 0.00 in0.0 mm 0.00 in0.0 mm 0.00 in0.0 mm
12:31 AM 81.0°F27.2°C 66.7°F19.3°C 62% 2.2 mph NW3.5 kmh NW 9.2 mph14.8 kmh 29.79 in1008.8 mb 0.00 in0.0 mm 0.00 in0.0 mm 0.00 in0.0 mm
12:30 AM 81.0°F27.2°C 66.7°F19.3°C 62% 3.8 mph 6.1 kmh 7.6 mph12.2 kmh 29.79 in1008.8 mb 0.00 in0.0 mm 0.00 in0.0 mm 0.00 in0.0 mm
12:29 AM 81.0°F27.2°C 66.7°F19.3°C 62% 3.1 mph NE5.0 kmh NE 7.6 mph12.2 kmh 29.79 in1008.8 mb 0.00 in0.0 mm 0.00 in0.0 mm 0.00 in0.0 mm
12:28 AM 81.0°F27.2°C 66.7°F19.3°C 62% 4.5 mph 7.2 kmh 7.6 mph12.2 kmh 29.79 in1008.8 mb 0.00 in0.0 mm 0.00 in0.0 mm 0.00 in0.0 mm
12:26 AM 81.0°F27.2°C 66.7°F19.3°C 62% 3.8 mph 6.1 kmh 5.4 mph8.7 kmh 29.80 in1009.1 mb 0.00 in0.0 mm 0.00 in0.0 mm 0.00 in0.0 mm
12:25 AM 81.1°F27.3°C 66.9°F19.4°C 62% 3.8 mph 6.1 kmh 10.7 mph17.2 kmh 29.79 in1008.8 mb 0.00 in0.0 mm 0.00 in0.0 mm 0.00 in0.0 mm
12:24 AM 81.1°F27.3°C 66.9°F19.4°C 62% 4.5 mph NE7.2 kmh NE 10.7 mph17.2 kmh 29.79 in1008.8 mb 0.00 in0.0 mm 0.00 in0.0 mm 0.00 in0.0 mm
12:23 AM 81.1°F27.3°C 66.9°F19.4°C 62% 3.8 mph 6.1 kmh 9.8 mph15.8 kmh 29.79 in1008.8 mb 0.00 in0.0 mm 0.00 in0.0 mm 0.00 in0.0 mm
12:22 AM 81.1°F27.3°C 66.9°F19.4°C 62% 3.8 mph WSW6.1 kmh WSW 9.8 mph15.8 kmh 29.79 in1008.8 mb 0.00 in0.0 mm 0.00 in0.0 mm 0.00 in0.0 mm
12:21 AM 81.1°F27.3°C 66.9°F19.4°C 62% 4.5 mph NW7.2 kmh NW 9.8 mph15.8 kmh 29.79 in1008.8 mb 0.00 in0.0 mm 0.00 in0.0 mm 0.00 in0.0 mm
12:19 AM 81.3°F27.4°C 67.1°F19.5°C 62% 3.8 mph NW6.1 kmh NW 7.6 mph12.2 kmh 29.79 in1008.8 mb 0.00 in0.0 mm 0.00 in0.0 mm 0.00 in0.0 mm
12:18 AM 81.3°F27.4°C 67.1°F19.5°C 62% 3.1 mph NW5.0 kmh NW 7.6 mph12.2 kmh 29.79 in1008.8 mb 0.00 in0.0 mm 0.00 in0.0 mm 0.00 in0.0 mm
12:17 AM 81.3°F27.4°C 67.5°F19.7°C 63% 3.8 mph NW6.1 kmh NW 8.3 mph13.4 kmh 29.80 in1009.1 mb 0.00 in0.0 mm 0.00 in0.0 mm 0.00 in0.0 mm
12:16 AM 81.1°F27.3°C 67.3°F19.6°C 63% 4.5 mph 7.2 kmh 8.3 mph13.4 kmh 29.80 in1009.1 mb 0.00 in0.0 mm 0.00 in0.0 mm 0.00 in0.0 mm
12:15 AM 81.3°F27.4°C 67.5°F19.7°C 63% 4.5 mph SE7.2 kmh SE 8.3 mph13.4 kmh 29.79 in1008.8 mb 0.00 in0.0 mm 0.00 in0.0 mm 0.00 in0.0 mm
12:14 AM 81.3°F27.4°C 67.5°F19.7°C 63% 4.5 mph NE7.2 kmh NE 8.3 mph13.4 kmh 29.80 in1009.1 mb 0.00 in0.0 mm 0.00 in0.0 mm 0.00 in0.0 mm
12:12 AM 81.3°F27.4°C 67.5°F19.7°C 63% 2.2 mph NE3.5 kmh NE 6.0 mph9.7 kmh 29.79 in1008.8 mb 0.00 in0.0 mm 0.00 in0.0 mm 0.00 in0.0 mm
12:11 AM 81.3°F27.4°C 67.5°F19.7°C 63% 3.1 mph 5.0 kmh 6.0 mph9.7 kmh 29.80 in1009.1 mb 0.00 in0.0 mm 0.00 in0.0 mm 0.00 in0.0 mm
12:10 AM 81.7°F27.6°C 67.8°F19.9°C 63% 2.2 mph NE3.5 kmh NE 6.9 mph11.1 kmh 29.80 in1009.1 mb 0.00 in0.0 mm 0.00 in0.0 mm 0.00 in0.0 mm
12:09 AM 81.5°F27.5°C 67.6°F19.8°C 63% 3.8 mph NE6.1 kmh NE 6.9 mph11.1 kmh 29.80 in1009.1 mb 0.00 in0.0 mm 0.00 in0.0 mm 0.00 in0.0 mm
12:08 AM 81.5°F27.5°C 67.6°F19.8°C 63% 3.8 mph E6.1 kmh E 6.0 mph9.7 kmh 29.80 in1009.1 mb 0.00 in0.0 mm 0.00 in0.0 mm 0.00 in0.0 mm
12:06 AM 81.5°F27.5°C 67.6°F19.8°C 63% 3.1 mph NE5.0 kmh NE 5.4 mph8.7 kmh 29.80 in1009.1 mb 0.00 in0.0 mm 0.00 in0.0 mm 0.00 in0.0 mm
12:05 AM 81.5°F27.5°C 67.6°F19.8°C 63% 2.2 mph 3.5 kmh 6.0 mph9.7 kmh 29.80 in1009.1 mb 0.00 in0.0 mm 0.00 in0.0 mm 0.00 in0.0 mm
12:04 AM 81.5°F27.5°C 67.6°F19.8°C 63% 3.8 mph NE6.1 kmh NE 6.0 mph9.7 kmh 29.80 in1009.1 mb 0.00 in0.0 mm 0.00 in0.0 mm 0.00 in0.0 mm
12:03 AM 81.5°F27.5°C 67.6°F19.8°C 63% 3.1 mph NE5.0 kmh NE 6.0 mph9.7 kmh 29.80 in1009.1 mb 0.00 in0.0 mm 0.00 in0.0 mm 0.00 in0.0 mm
12:02 AM 81.5°F27.5°C 67.6°F19.8°C 63% 3.1 mph 5.0 kmh 6.9 mph11.1 kmh 29.80 in1009.1 mb 0.00 in0.0 mm 0.00 in0.0 mm 0.00 in0.0 mm
12:01 AM 81.5°F27.5°C 67.6°F19.8°C 63% 2.2 mph W3.5 kmh W 4.5 mph7.2 kmh 29.80 in1009.1 mb 0.00 in0.0 mm 0.00 in0.0 mm 0.00 in0.0 mm